Time;durP1;ratioP1;P1;durP2;ratioP2;P2;SDS_P1;SDS_P2;PMS_P1;PMS_P2;Temp;Humidity;BMP_temperature;BMP_pressure;BME280_temperature;BME280_humidity;BME280_pressure;Samples;Min_cycle;Max_cycle;Signal;HPM_P1;HPM_P2
2021/08/01 00:01:09;;;;;;;3.28;1.33;;;18.30;70.20;;;;;;3547857;40;20030;-66
2021/08/01 00:03:34;;;;;;;2.70;1.40;;;18.20;70.50;;;;;;3541534;40;20022;-67
2021/08/01 00:06:00;;;;;;;3.45;1.52;;;18.20;70.60;;;;;;3541345;40;20471;-67
2021/08/01 00:08:26;;;;;;;1.60;1.33;;;18.20;70.90;;;;;;3531668;40;20049;-67
2021/08/01 00:10:55;;;;;;;3.15;1.48;;;18.10;71.00;;;;;;3540644;40;20432;-67
2021/08/01 00:13:21;;;;;;;2.03;1.42;;;18.10;71.10;;;;;;3541680;40;20104;-66
2021/08/01 00:15:47;;;;;;;1.52;1.42;;;18.10;71.40;;;;;;3541284;40;20465;-66
2021/08/01 00:18:13;;;;;;;2.33;1.65;;;18.10;71.50;;;;;;3541059;40;20030;-66
2021/08/01 00:20:40;;;;;;;1.75;1.50;;;18.10;71.60;;;;;;3541324;40;20420;-66
2021/08/01 00:23:06;;;;;;;2.95;1.80;;;18.00;71.70;;;;;;3540571;40;20136;-66
2021/08/01 00:25:31;;;;;;;3.50;1.48;;;18.00;72.00;;;;;;3540533;40;20046;-66
2021/08/01 00:27:57;;;;;;;3.40;1.80;;;18.00;71.90;;;;;;3541370;40;20331;-68
2021/08/01 00:30:22;;;;;;;1.65;1.40;;;18.00;72.60;;;;;;3540930;40;20035;-66
2021/08/01 00:32:48;;;;;;;2.67;1.63;;;17.90;72.40;;;;;;3541605;40;20042;-67
2021/08/01 00:35:14;;;;;;;3.65;1.40;;;17.90;72.20;;;;;;3541252;40;20435;-63
2021/08/01 00:37:40;;;;;;;3.17;1.55;;;18.00;72.40;;;;;;3541370;40;20069;-64
2021/08/01 00:40:06;;;;;;;2.05;1.50;;;17.90;72.60;;;;;;3540706;40;20070;-63
2021/08/01 00:42:33;;;;;;;2.47;1.70;;;18.00;72.70;;;;;;3541358;40;20034;-63
2021/08/01 00:44:58;;;;;;;2.28;1.60;;;17.90;72.80;;;;;;3540162;40;20034;-63
2021/08/01 00:47:24;;;;;;;1.95;1.70;;;17.90;72.70;;;;;;3541358;40;20031;-64
2021/08/01 00:49:50;;;;;;;2.03;1.83;;;17.90;72.90;;;;;;3541537;40;20733;-63
2021/08/01 00:52:17;;;;;;;2.15;1.60;;;17.80;73.30;;;;;;3540710;40;20400;-64
2021/08/01 00:54:43;;;;;;;3.55;1.70;;;17.80;73.50;;;;;;3541220;40;20041;-64
2021/08/01 00:57:11;;;;;;;2.10;1.70;;;17.70;73.50;;;;;;3540057;40;20328;-64
2021/08/01 00:59:39;;;;;;;1.80;1.70;;;17.70;73.70;;;;;;3540609;40;20035;-63
2021/08/01 01:02:25;;;;;;;2.53;1.50;;;17.70;73.80;;;;;;3537615;40;20041;-63
2021/08/01 01:04:56;;;;;;;2.53;2.00;;;17.70;73.90;;;;;;3539668;40;20124;-63
2021/08/01 01:07:34;;;;;;;1.77;1.67;;;17.60;74.30;;;;;;3540730;40;20066;-63
2021/08/01 01:10:09;;;;;;;2.08;1.88;;;17.60;74.60;;;;;;3530209;40;20039;-64
2021/08/01 01:12:50;;;;;;;2.53;1.58;;;17.60;74.70;;;;;;3540975;40;20049;-63
2021/08/01 01:15:24;;;;;;;1.80;1.60;;;17.50;74.90;;;;;;3540434;40;20041;-63
2021/08/01 01:17:53;;;;;;;1.73;1.52;;;17.50;75.00;;;;;;3547572;40;20162;-63
2021/08/01 01:20:34;;;;;;;4.53;1.73;;;17.50;75.00;;;;;;3538592;40;20453;-63
2021/08/01 01:23:25;;;;;;;2.15;1.95;;;17.50;75.20;;;;;;3547216;40;20108;-63
2021/08/01 01:26:18;;;;;;;;;;;17.50;75.40;;;;;;3540969;40;20034;-62
2021/08/01 01:28:56;;;;;;;2.40;1.80;;;17.50;75.30;;;;;;3540941;40;19978;-63
2021/08/01 01:31:36;;;;;;;3.08;1.88;;;17.50;75.40;;;;;;3539112;40;20285;-63
2021/08/01 01:34:25;;;;;;;2.05;1.85;;;17.40;75.60;;;;;;3543812;40;20039;-63
2021/08/01 01:36:53;;;;;;;2.00;1.80;;;17.40;76.00;;;;;;3540021;40;20030;-64
2021/08/01 01:39:21;;;;;;;2.30;1.88;;;17.40;76.20;;;;;;3540376;40;20692;-63
2021/08/01 01:42:03;;;;;;;2.40;1.90;;;17.40;76.30;;;;;;3539817;40;20120;-64
2021/08/01 01:44:42;;;;;;;2.78;2.15;;;17.40;76.50;;;;;;3539874;40;20046;-63
2021/08/01 01:47:08;;;;;;;2.63;1.80;;;17.40;76.70;;;;;;3546986;40;20035;-63
2021/08/01 01:49:36;;;;;;;2.38;2.00;;;17.40;76.50;;;;;;3539637;40;20422;-63
2021/08/01 01:52:04;;;;;;;2.47;1.73;;;17.40;76.50;;;;;;3538906;40;20035;-63
2021/08/01 01:54:33;;;;;;;2.45;1.80;;;17.40;76.40;;;;;;3540415;40;20026;-63
2021/08/01 01:57:00;;;;;;;2.63;2.08;;;17.40;76.40;;;;;;3540347;40;20668;-63
2021/08/01 01:59:31;;;;;;;1.85;1.70;;;17.50;76.50;;;;;;3539162;40;20054;-63
2021/08/01 02:01:58;;;;;;;2.47;1.90;;;17.40;76.50;;;;;;3548294;40;20432;-64
2021/08/01 02:04:24;;;;;;;2.17;1.75;;;17.30;76.50;;;;;;3540550;40;20041;-63
2021/08/01 02:07:10;;;;;;;1.98;1.83;;;17.30;77.60;;;;;;3534323;40;20121;-63
2021/08/01 02:09:51;;;;;;;2.63;1.92;;;17.20;77.20;;;;;;3540394;40;20471;-64
2021/08/01 02:12:36;;;;;;;3.35;2.05;;;17.20;77.40;;;;;;3541868;40;20434;-63
2021/08/01 02:15:08;;;;;;;2.90;2.00;;;17.20;77.50;;;;;;3539593;40;20066;-66
2021/08/01 02:17:40;;;;;;;2.85;2.45;;;17.20;77.90;;;;;;3541490;40;20037;-66
2021/08/01 02:20:08;;;;;;;3.75;2.30;;;17.20;78.20;;;;;;3540037;40;20027;-66
2021/08/01 02:22:39;;;;;;;2.10;1.88;;;17.20;77.80;;;;;;3546969;40;20053;-69
2021/08/01 02:25:06;;;;;;;2.40;2.20;;;17.20;77.80;;;;;;3541139;40;20416;-66
2021/08/01 02:27:35;;;;;;;4.15;2.10;;;17.20;77.70;;;;;;3541503;40;20128;-66
2021/08/01 02:30:02;;;;;;;2.28;2.08;;;17.30;78.00;;;;;;3538994;40;20066;-66
2021/08/01 02:32:32;;;;;;;1.90;1.80;;;17.20;77.90;;;;;;3538745;40;20038;-67
2021/08/01 02:35:01;;;;;;;2.28;2.08;;;17.20;77.90;;;;;;3539986;40;20031;-66
2021/08/01 02:37:28;;;;;;;3.35;2.15;;;17.20;78.70;;;;;;3540886;40;20030;-66
2021/08/01 02:39:55;;;;;;;2.63;2.10;;;17.20;78.20;;;;;;3548454;40;20039;-66
2021/08/01 02:42:25;;;;;;;2.15;1.95;;;17.20;78.40;;;;;;3541053;40;20034;-67
2021/08/01 02:44:56;;;;;;;2.28;2.08;;;17.10;78.30;;;;;;3541624;40;20046;-66
2021/08/01 02:47:24;;;;;;;2.33;2.13;;;17.10;78.50;;;;;;3548755;40;20394;-66
2021/08/01 02:49:53;;;;;;;2.30;2.10;;;17.10;78.50;;;;;;3540832;40;20089;-67
2021/08/01 02:52:24;;;;;;;2.83;2.10;;;17.10;78.60;;;;;;3541480;40;20057;-66
2021/08/01 02:54:50;;;;;;;3.47;2.33;;;17.10;79.40;;;;;;3541693;40;20141;-66
2021/08/01 02:57:21;;;;;;;2.90;2.35;;;17.10;79.00;;;;;;3540794;40;20053;-66
2021/08/01 02:59:48;;;;;;;2.67;2.22;;;17.00;79.30;;;;;;3540271;40;20050;-66
2021/08/01 03:02:15;;;;;;;2.60;2.25;;;17.00;79.50;;;;;;3541652;40;20035;-66
2021/08/01 03:04:55;;;;;;;2.58;2.38;;;17.00;79.80;;;;;;3539008;40;20042;-66
2021/08/01 03:07:22;;;;;;;2.70;2.45;;;17.00;79.80;;;;;;3541596;40;20050;-67
2021/08/01 03:09:54;;;;;;;2.63;2.28;;;17.00;79.80;;;;;;3540610;40;20038;-66
2021/08/01 03:12:20;;;;;;;3.88;2.55;;;17.00;80.00;;;;;;3541282;40;20050;-67
2021/08/01 03:14:46;;;;;;;4.10;2.50;;;17.00;79.90;;;;;;3540975;40;20030;-66
2021/08/01 03:17:12;;;;;;;3.78;2.50;;;17.00;79.80;;;;;;3540046;40;20031;-66
2021/08/01 03:19:41;;;;;;;4.00;2.50;;;17.00;79.90;;;;;;3539952;40;20349;-66
2021/08/01 03:22:09;;;;;;;2.53;2.17;;;17.00;80.00;;;;;;3541121;40;20049;-67
2021/08/01 03:24:40;;;;;;;3.85;2.63;;;17.00;79.80;;;;;;3538893;40;20046;-67
2021/08/01 03:27:13;;;;;;;2.95;2.65;;;17.00;79.60;;;;;;3540960;40;20039;-66
2021/08/01 03:29:38;;;;;;;3.45;2.72;;;17.00;79.50;;;;;;3540081;40;20066;-66
2021/08/01 03:32:09;;;;;;;2.95;2.65;;;17.00;79.40;;;;;;3539331;40;20034;-66
2021/08/01 03:34:36;;;;;;;3.88;2.63;;;16.90;79.70;;;;;;3540720;40;20052;-66
2021/08/01 03:37:01;;;;;;;3.67;2.70;;;16.90;79.90;;;;;;3540958;40;20414;-66
2021/08/01 03:40:02;;;;;;;2.47;2.28;;;16.90;80.10;;;;;;3528395;40;20050;-67
2021/08/01 03:42:28;;;;;;;3.30;2.40;;;16.90;80.10;;;;;;3534114;40;20602;-66
2021/08/01 03:44:54;;;;;;;2.75;2.45;;;16.90;80.10;;;;;;3548054;40;20089;-67
2021/08/01 03:47:20;;;;;;;2.67;2.30;;;16.80;80.20;;;;;;3540783;40;20030;-66
2021/08/01 03:49:48;;;;;;;3.65;2.72;;;16.80;80.20;;;;;;3539066;40;20191;-66
2021/08/01 03:52:13;;;;;;;2.97;2.70;;;16.80;80.60;;;;;;3540470;40;20483;-67
2021/08/01 03:54:39;;;;;;;4.05;2.67;;;16.80;80.70;;;;;;3540625;40;20034;-67
2021/08/01 03:57:06;;;;;;;2.45;2.25;;;16.80;80.80;;;;;;3541044;40;20023;-66
2021/08/01 03:59:37;;;;;;;3.13;2.75;;;16.80;81.00;;;;;;3540837;40;20132;-67
2021/08/01 04:02:04;;;;;;;5.47;2.75;;;16.80;81.10;;;;;;3541155;40;20042;-66
2021/08/01 04:04:30;;;;;;;3.35;2.85;;;16.90;81.00;;;;;;3538738;40;20450;-66
2021/08/01 04:06:55;;;;;;;3.10;2.75;;;16.90;80.60;;;;;;3547775;40;20035;-67
2021/08/01 04:09:21;;;;;;;4.65;2.80;;;17.00;80.50;;;;;;3540546;40;20496;-67
2021/08/01 04:11:47;;;;;;;3.05;2.70;;;17.00;80.60;;;;;;3540909;40;20728;-66
2021/08/01 04:14:13;;;;;;;2.67;2.40;;;17.00;80.60;;;;;;3541732;40;20050;-66
2021/08/01 04:16:39;;;;;;;2.88;2.67;;;17.00;80.30;;;;;;3541355;40;20041;-66
2021/08/01 04:19:09;;;;;;;3.35;2.45;;;17.10;80.40;;;;;;3541438;40;20070;-66
2021/08/01 04:21:37;;;;;;;3.03;2.72;;;17.10;80.60;;;;;;3539746;40;20030;-67
2021/08/01 04:24:03;;;;;;;3.25;2.95;;;17.10;80.50;;;;;;3541387;40;20033;-67
2021/08/01 04:26:29;;;;;;;4.55;2.83;;;17.10;80.50;;;;;;3539195;40;20030;-66
2021/08/01 04:28:55;;;;;;;3.60;2.50;;;17.20;80.50;;;;;;3541429;40;20046;-67
2021/08/01 04:31:21;;;;;;;4.75;2.85;;;17.20;80.40;;;;;;3541252;40;20309;-67
2021/08/01 04:33:47;;;;;;;3.83;2.65;;;17.20;80.10;;;;;;3541641;40;20148;-66
2021/08/01 04:36:12;;;;;;;3.10;2.80;;;17.30;80.00;;;;;;3540868;40;20027;-67
2021/08/01 04:38:38;;;;;;;4.13;2.90;;;17.40;79.90;;;;;;3547255;40;20042;-67
2021/08/01 04:41:04;;;;;;;3.25;2.95;;;17.40;79.60;;;;;;3537873;40;20027;-66
2021/08/01 04:43:29;;;;;;;3.92;3.50;;;17.50;79.40;;;;;;3540312;40;20512;-67
2021/08/01 04:45:55;;;;;;;3.05;2.70;;;17.60;79.30;;;;;;3539511;40;20057;-67
2021/08/01 04:48:21;;;;;;;3.75;3.17;;;17.60;79.00;;;;;;3538577;40;20786;-66
2021/08/01 04:50:47;;;;;;;2.97;2.78;;;17.70;78.90;;;;;;3539273;40;20026;-66
2021/08/01 04:53:12;;;;;;;3.28;2.97;;;17.80;78.70;;;;;;3540206;40;20037;-66
2021/08/01 04:55:40;;;;;;;6.07;2.95;;;17.80;78.60;;;;;;3539569;40;20031;-66
2021/08/01 04:58:05;;;;;;;3.30;3.00;;;17.90;78.90;;;;;;3532221;40;20116;-63
2021/08/01 05:00:31;;;;;;;4.20;3.17;;;17.90;77.90;;;;;;3539831;40;20058;-63
2021/08/01 05:03:01;;;;;;;3.08;2.88;;;18.00;77.70;;;;;;3540317;40;20078;-63
2021/08/01 05:05:28;;;;;;;4.03;3.00;;;18.00;77.70;;;;;;3540728;40;20041;-63
2021/08/01 05:07:54;;;;;;;3.30;3.00;;;18.10;77.60;;;;;;3538600;40;20030;-63
2021/08/01 05:10:20;;;;;;;4.38;3.08;;;18.20;77.40;;;;;;3540326;40;20274;-63
2021/08/01 05:12:49;;;;;;;3.45;2.92;;;18.20;77.30;;;;;;3538827;40;20029;-63
2021/08/01 05:15:15;;;;;;;3.08;2.75;;;18.30;77.00;;;;;;3540120;40;20425;-63
2021/08/01 05:17:41;;;;;;;3.45;3.15;;;18.30;76.80;;;;;;3541035;40;20694;-63
2021/08/01 05:20:08;;;;;;;3.95;3.13;;;18.30;76.80;;;;;;3540129;40;20042;-64
2021/08/01 05:22:34;;;;;;;3.42;3.13;;;18.40;76.90;;;;;;3537115;40;20039;-63
2021/08/01 05:24:59;;;;;;;4.15;3.17;;;18.40;76.80;;;;;;3538893;40;20037;-63
2021/08/01 05:27:25;;;;;;;6.35;3.50;;;18.50;76.70;;;;;;3547016;40;20071;-63
2021/08/01 05:29:51;;;;;;;3.25;2.92;;;18.50;76.10;;;;;;3539477;40;20521;-63
2021/08/01 05:32:16;;;;;;;4.75;3.28;;;18.60;76.00;;;;;;3540257;40;20064;-63
2021/08/01 05:34:42;;;;;;;4.50;3.33;;;18.60;75.90;;;;;;3541531;40;20031;-64
2021/08/01 05:37:08;;;;;;;4.13;3.50;;;18.60;75.80;;;;;;3541320;40;20034;-63
2021/08/01 05:39:34;;;;;;;5.53;3.42;;;18.70;75.80;;;;;;3540107;40;20035;-64
2021/08/01 05:42:01;;;;;;;5.70;3.50;;;18.70;75.80;;;;;;3541596;40;20019;-64
2021/08/01 05:44:27;;;;;;;3.78;3.22;;;18.80;75.30;;;;;;3540933;40;20027;-64
2021/08/01 05:46:52;;;;;;;3.72;3.38;;;18.80;75.50;;;;;;3541687;40;20030;-64
2021/08/01 05:49:18;;;;;;;4.03;3.58;;;18.80;75.00;;;;;;3541649;40;20026;-64
2021/08/01 05:51:44;;;;;;;4.03;3.42;;;18.90;75.20;;;;;;3541307;40;20029;-63
2021/08/01 05:54:10;;;;;;;3.88;3.40;;;18.90;75.30;;;;;;3541431;40;20034;-63
2021/08/01 05:56:36;;;;;;;4.32;3.70;;;19.00;75.00;;;;;;3541669;40;20038;-63
2021/08/01 05:59:02;;;;;;;4.60;3.22;;;19.00;74.60;;;;;;3541613;40;20125;-63
2021/08/01 06:01:27;;;;;;;5.22;3.47;;;19.00;74.80;;;;;;3540047;40;20041;-64
2021/08/01 06:03:53;;;;;;;3.28;2.97;;;19.10;74.90;;;;;;3541529;40;20038;-64
2021/08/01 06:06:22;;;;;;;7.57;4.20;;;19.20;74.90;;;;;;3548598;40;20053;-63
2021/08/01 06:08:50;;;;;;;6.78;3.53;;;19.20;74.20;;;;;;3542306;40;20034;-64
2021/08/01 06:11:16;;;;;;;3.85;3.40;;;19.30;74.10;;;;;;3540315;40;20682;-63
2021/08/01 06:13:43;;;;;;;10.75;3.30;;;19.20;74.20;;;;;;3542026;40;20027;-63
2021/08/01 06:16:10;;;;;;;4.88;3.70;;;19.30;74.20;;;;;;3536421;40;20038;-63
2021/08/01 06:18:37;;;;;;;5.63;3.55;;;19.30;74.00;;;;;;3541670;40;20744;-64
2021/08/01 06:21:04;;;;;;;4.43;3.45;;;19.30;73.90;;;;;;3540252;40;20042;-63
2021/08/01 06:23:30;;;;;;;5.40;3.47;;;19.40;74.10;;;;;;3541446;40;20034;-63
2021/08/01 06:25:56;;;;;;;3.58;2.97;;;19.40;73.80;;;;;;3540209;40;20034;-70
2021/08/01 06:28:21;;;;;;;5.70;3.50;;;19.50;73.30;;;;;;3541634;40;20069;-64
2021/08/01 06:30:47;;;;;;;4.55;4.15;;;19.50;73.70;;;;;;3542092;40;20037;-63
2021/08/01 06:33:12;;;;;;;5.20;3.97;;;19.60;73.40;;;;;;3540123;40;20074;-64
2021/08/01 06:35:38;;;;;;;5.40;3.83;;;19.60;73.80;;;;;;3541565;40;20027;-64
2021/08/01 06:38:04;;;;;;;3.80;3.33;;;19.70;73.50;;;;;;3548382;40;20097;-64
2021/08/01 06:40:30;;;;;;;5.95;3.83;;;19.70;73.30;;;;;;3539577;40;20046;-70
2021/08/01 06:42:56;;;;;;;6.25;3.90;;;19.70;72.80;;;;;;3540044;40;20064;-63
2021/08/01 06:45:22;;;;;;;4.90;3.50;;;19.70;73.20;;;;;;3540805;40;20573;-63
2021/08/01 06:47:48;;;;;;;4.97;4.10;;;19.70;73.50;;;;;;3540514;40;20531;-65
2021/08/01 06:50:13;;;;;;;6.28;3.58;;;19.70;73.00;;;;;;3540460;40;20128;-64
2021/08/01 06:52:39;;;;;;;6.43;3.38;;;19.80;73.10;;;;;;3538865;40;20019;-64
2021/08/01 06:55:05;;;;;;;6.35;5.00;;;19.90;72.90;;;;;;3532535;40;20041;-64
2021/08/01 06:57:31;;;;;;;11.10;5.95;;;20.00;72.40;;;;;;3541003;40;20144;-64
2021/08/01 06:59:57;;;;;;;7.63;5.15;;;20.10;72.20;;;;;;3531742;40;20417;-65
2021/08/01 07:02:23;;;;;;;7.28;3.78;;;20.30;72.10;;;;;;3541293;40;20123;-65
2021/08/01 07:04:48;;;;;;;8.05;5.65;;;20.50;70.60;;;;;;3538432;40;20019;-65
2021/08/01 07:07:14;;;;;;;6.80;4.75;;;20.60;69.90;;;;;;3541646;40;20041;-65
2021/08/01 07:09:40;;;;;;;6.90;4.43;;;20.70;69.80;;;;;;3541117;40;20034;-65
2021/08/01 07:12:09;;;;;;;16.33;9.75;;;20.80;69.30;;;;;;3541530;40;20015;-65
2021/08/01 07:14:35;;;;;;;8.48;5.50;;;20.80;69.80;;;;;;3547159;40;20038;-65
2021/08/01 07:17:01;;;;;;;5.85;4.00;;;21.00;68.60;;;;;;3539301;40;20335;-65
2021/08/01 07:19:27;;;;;;;6.55;4.30;;;21.00;68.10;;;;;;3541470;40;20030;-68
2021/08/01 07:21:53;;;;;;;6.88;3.90;;;21.10;69.30;;;;;;3540452;40;20045;-67
2021/08/01 07:24:19;;;;;;;6.70;3.55;;;21.20;68.70;;;;;;3540630;40;20066;-65
2021/08/01 07:26:47;;;;;;;6.38;3.58;;;21.40;67.20;;;;;;3541169;40;20191;-65
2021/08/01 07:29:13;;;;;;;5.28;3.40;;;21.40;67.20;;;;;;3541803;40;20084;-65
2021/08/01 07:31:39;;;;;;;4.93;3.08;;;21.30;67.80;;;;;;3541287;40;20019;-65
2021/08/01 07:34:05;;;;;;;6.72;3.47;;;21.30;68.10;;;;;;3540943;40;20116;-65
2021/08/01 07:36:30;;;;;;;5.18;3.13;;;21.30;67.60;;;;;;3541395;40;20035;-65
2021/08/01 07:38:56;;;;;;;6.30;3.42;;;21.30;67.60;;;;;;3540860;40;20447;-65
2021/08/01 07:41:22;;;;;;;8.55;3.72;;;21.20;67.80;;;;;;3541231;40;20865;-65
2021/08/01 07:43:50;;;;;;;4.85;2.90;;;21.10;67.70;;;;;;3539818;40;20027;-67
2021/08/01 07:46:17;;;;;;;3.80;2.92;;;21.10;68.00;;;;;;3539876;40;20617;-67
2021/08/01 07:48:43;;;;;;;4.88;2.67;;;21.10;68.30;;;;;;3541501;40;20692;-69
2021/08/01 07:51:09;;;;;;;3.90;3.20;;;21.00;68.90;;;;;;3540751;40;20026;-65
2021/08/01 07:53:35;;;;;;;5.10;3.38;;;21.10;68.50;;;;;;3540772;40;20046;-65
2021/08/01 07:56:00;;;;;;;6.90;3.70;;;21.20;68.20;;;;;;3541267;40;20089;-64
2021/08/01 07:58:26;;;;;;;6.78;3.88;;;21.30;67.40;;;;;;3541123;40;20030;-64
2021/08/01 08:00:52;;;;;;;4.53;3.42;;;21.40;67.60;;;;;;3541037;40;20026;-65
2021/08/01 08:03:17;;;;;;;5.93;3.10;;;21.60;66.70;;;;;;3538360;40;20039;-68
2021/08/01 08:05:43;;;;;;;7.35;3.58;;;21.70;66.70;;;;;;3548188;40;20045;-70
2021/08/01 08:08:08;;;;;;;4.47;3.00;;;21.80;65.00;;;;;;3540620;40;20019;-67
2021/08/01 08:10:36;;;;;;;3.80;2.72;;;21.80;65.70;;;;;;3540456;40;20030;-67
2021/08/01 08:13:02;;;;;;;6.93;5.15;;;21.90;64.70;;;;;;3540928;40;20042;-67
2021/08/01 08:15:28;;;;;;;11.05;3.75;;;22.00;64.40;;;;;;3540438;40;20030;-65
2021/08/01 08:17:54;;;;;;;7.13;3.50;;;22.10;64.40;;;;;;3541284;40;20034;-64
2021/08/01 08:20:20;;;;;;;4.95;3.28;;;22.20;63.50;;;;;;3540671;40;20658;-65
2021/08/01 08:22:46;;;;;;;5.72;3.60;;;22.10;64.10;;;;;;3540394;40;20030;-65
2021/08/01 08:25:12;;;;;;;4.38;3.13;;;22.10;63.70;;;;;;3540992;40;20085;-65
2021/08/01 08:27:38;;;;;;;3.83;2.60;;;22.20;63.60;;;;;;3540864;40;20033;-63
2021/08/01 08:30:06;;;;;;;6.15;2.78;;;22.20;63.10;;;;;;3541110;40;20054;-64
2021/08/01 08:32:33;;;;;;;3.97;2.90;;;22.10;64.10;;;;;;3541260;40;20415;-65
2021/08/01 08:34:59;;;;;;;5.85;2.80;;;22.10;64.40;;;;;;3540607;40;20037;-65
2021/08/01 08:37:25;;;;;;;3.42;2.50;;;22.20;64.10;;;;;;3541222;40;20026;-66
2021/08/01 08:39:51;;;;;;;4.68;2.60;;;22.30;63.80;;;;;;3540562;40;20356;-65
2021/08/01 08:42:17;;;;;;;5.40;3.10;;;22.50;63.20;;;;;;3541053;40;20113;-65
2021/08/01 08:44:43;;;;;;;6.13;2.60;;;22.60;62.30;;;;;;3539478;40;20414;-65
2021/08/01 08:47:09;;;;;;;5.93;3.33;;;22.60;62.20;;;;;;3541028;40;20443;-64
2021/08/01 08:49:36;;;;;;;7.00;3.00;;;22.60;62.10;;;;;;3538485;40;20086;-65
2021/08/01 08:52:06;;;;;;;5.05;3.15;;;22.60;62.10;;;;;;3538343;40;20011;-63
2021/08/01 08:54:51;;;;;;;6.85;3.13;;;22.70;62.00;;;;;;3531815;40;20203;-63
2021/08/01 08:57:20;;;;;;;6.03;3.47;;;22.70;61.20;;;;;;3540622;40;20513;-63
2021/08/01 08:59:46;;;;;;;4.25;2.60;;;22.80;60.40;;;;;;3539754;40;20157;-63
2021/08/01 09:02:14;;;;;;;4.40;2.70;;;22.90;60.90;;;;;;3540500;40;20071;-64
2021/08/01 09:04:44;;;;;;;4.70;2.83;;;23.10;59.50;;;;;;3537919;40;20077;-63
2021/08/01 09:07:10;;;;;;;3.90;3.17;;;23.00;60.70;;;;;;3541519;40;20038;-65
2021/08/01 09:09:36;;;;;;;3.55;2.47;;;23.10;60.70;;;;;;3542614;40;20248;-64
2021/08/01 09:12:02;;;;;;;4.50;2.50;;;23.20;60.70;;;;;;3549627;40;20038;-63
2021/08/01 09:14:27;;;;;;;3.60;2.50;;;23.30;59.60;;;;;;3540542;40;20538;-63
2021/08/01 09:16:53;;;;;;;2.85;2.10;;;23.40;58.60;;;;;;3542011;40;20071;-63
2021/08/01 09:19:26;;;;;;;3.15;2.30;;;23.40;59.30;;;;;;3542240;40;20041;-63
2021/08/01 09:21:53;;;;;;;4.20;2.17;;;23.50;58.50;;;;;;3541639;40;20043;-63
2021/08/01 09:24:19;;;;;;;2.25;2.00;;;23.70;57.80;;;;;;3542604;40;20404;-63
2021/08/01 09:26:47;;;;;;;2.55;2.13;;;23.70;56.90;;;;;;3542883;40;20038;-64
2021/08/01 09:29:14;;;;;;;4.72;3.42;;;23.70;57.40;;;;;;3532640;40;20104;-66
2021/08/01 09:31:42;;;;;;;4.10;2.75;;;23.70;58.40;;;;;;3542812;40;20076;-67
2021/08/01 09:34:25;;;;;;;2.05;1.85;;;23.90;58.00;;;;;;3539342;40;20022;-66
2021/08/01 09:37:03;;;;;;;3.90;2.28;;;24.10;55.70;;;;;;3541864;40;20446;-66
2021/08/01 09:39:37;;;;;;;3.10;1.95;;;24.30;54.60;;;;;;3542071;40;20081;-66
2021/08/01 09:42:03;;;;;;;2.65;1.77;;;24.30;55.40;;;;;;3542106;40;20052;-67
2021/08/01 09:44:31;;;;;;;3.72;1.90;;;24.30;55.00;;;;;;3542263;40;20105;-66
2021/08/01 09:46:57;;;;;;;5.85;2.10;;;24.30;55.00;;;;;;3541734;40;20030;-66
2021/08/01 09:49:31;;;;;;;4.10;2.20;;;24.40;55.50;;;;;;3541615;40;20112;-67
2021/08/01 09:51:59;;;;;;;4.40;2.85;;;24.40;54.50;;;;;;3542221;40;20027;-67
2021/08/01 09:54:47;;;;;;;4.57;2.85;;;24.40;54.10;;;;;;3542218;40;20034;-67
2021/08/01 09:57:20;;;;;;;3.75;2.72;;;24.30;54.70;;;;;;3542345;40;20577;-67
2021/08/01 10:00:03;;;;;;;5.82;2.00;;;24.30;55.50;;;;;;3537070;40;20132;-68
2021/08/01 10:02:39;;;;;;;3.38;2.28;;;24.30;54.40;;;;;;3541873;40;20309;-67
2021/08/01 10:05:19;;;;;;;4.75;2.20;;;24.30;55.40;;;;;;3541891;40;20129;-67
2021/08/01 10:07:46;;;;;;;6.00;2.05;;;24.20;55.10;;;;;;3542503;40;20062;-67
2021/08/01 10:10:16;;;;;;;3.92;2.20;;;24.20;55.60;;;;;;3542009;40;20048;-67
2021/08/01 10:12:47;;;;;;;3.00;2.20;;;24.10;54.90;;;;;;3549183;40;20040;-66
2021/08/01 10:15:14;;;;;;;3.70;2.90;;;24.00;55.80;;;;;;3542245;40;20033;-67
2021/08/01 10:17:40;;;;;;;5.15;2.90;;;23.70;56.70;;;;;;3541494;40;20079;-67
2021/08/01 10:20:07;;;;;;;2.67;2.15;;;23.70;57.80;;;;;;3541951;40;20392;-67
2021/08/01 10:22:38;;;;;;;5.03;3.25;;;23.80;57.10;;;;;;3541256;40;20093;-67
2021/08/01 10:25:10;;;;;;;3.33;2.38;;;23.80;56.20;;;;;;3542425;40;20062;-67
2021/08/01 10:27:41;;;;;;;3.42;2.30;;;23.90;56.20;;;;;;3532875;40;20322;-68
2021/08/01 10:30:07;;;;;;;2.17;1.98;;;24.00;55.80;;;;;;3545506;40;20074;-67
2021/08/01 10:32:36;;;;;;;6.88;2.70;;;24.00;54.70;;;;;;3542347;40;20038;-64
2021/08/01 10:35:07;;;;;;;4.22;1.90;;;23.90;56.20;;;;;;3540528;40;20097;-64
2021/08/01 10:37:45;;;;;;;4.57;2.65;;;23.80;56.10;;;;;;3549172;40;20046;-63
2021/08/01 10:40:18;;;;;;;2.65;2.33;;;23.70;56.70;;;;;;3549250;40;20035;-64
2021/08/01 10:42:49;;;;;;;5.75;3.53;;;23.80;56.90;;;;;;3541564;40;20565;-64
2021/08/01 10:45:17;;;;;;;4.95;2.15;;;23.90;56.50;;;;;;3541987;40;20065;-64
2021/08/01 10:47:45;;;;;;;4.95;3.75;;;23.90;55.60;;;;;;3542328;40;20032;-64
2021/08/01 10:50:16;;;;;;;5.28;2.08;;;23.90;57.10;;;;;;3542740;40;20065;-64
2021/08/01 10:52:42;;;;;;;3.42;2.53;;;24.00;56.10;;;;;;3543723;40;20023;-64
2021/08/01 10:55:20;;;;;;;5.20;3.28;;;24.00;55.30;;;;;;3542089;40;20034;-64
2021/08/01 10:58:13;;;;;;;5.75;4.25;;;23.80;56.10;;;;;;3540963;40;20050;-64
2021/08/01 11:00:59;;;;;;;3.65;2.58;;;23.70;56.60;;;;;;3541699;40;20069;-64
2021/08/01 11:03:25;;;;;;;3.03;1.80;;;23.60;57.00;;;;;;3541132;40;20042;-65
2021/08/01 11:05:51;;;;;;;3.45;2.30;;;23.60;56.20;;;;;;3545541;40;20034;-67
2021/08/01 11:08:17;;;;;;;3.55;1.98;;;23.50;56.90;;;;;;3540528;40;20026;-64
2021/08/01 11:10:44;;;;;;;2.70;2.03;;;23.40;57.60;;;;;;3539740;40;20042;-64
2021/08/01 11:13:31;;;;;;;2.60;1.80;;;23.40;58.00;;;;;;3539570;40;20023;-65
2021/08/01 11:15:57;;;;;;;3.22;1.95;;;23.50;57.80;;;;;;3538710;40;20065;-64
2021/08/01 11:18:30;;;;;;;2.50;1.88;;;23.70;58.00;;;;;;3539587;40;20030;-64
2021/08/01 11:20:59;;;;;;;3.97;2.00;;;23.90;56.80;;;;;;3539998;40;20054;-64
2021/08/01 11:23:44;;;;;;;3.13;1.80;;;24.10;55.20;;;;;;3547319;40;20042;-64
2021/08/01 11:26:11;;;;;;;2.53;1.88;;;24.20;54.00;;;;;;3538863;40;20038;-65
2021/08/01 11:28:39;;;;;;;2.38;1.92;;;24.30;53.90;;;;;;3540301;40;20749;-65
2021/08/01 11:31:04;;;;;;;3.10;1.95;;;24.40;53.70;;;;;;3538789;40;20674;-64
2021/08/01 11:33:35;;;;;;;2.33;1.70;;;24.50;53.60;;;;;;3548261;40;20018;-64
2021/08/01 11:36:13;;;;;;;3.35;1.92;;;24.60;53.20;;;;;;3547433;40;20136;-64
2021/08/01 11:39:00;;;;;;;5.55;3.97;;;24.70;52.50;;;;;;3541316;40;20046;-65
2021/08/01 11:41:30;;;;;;;3.72;2.22;;;24.60;54.40;;;;;;3540226;40;20156;-65
2021/08/01 11:43:57;;;;;;;2.63;1.50;;;24.60;52.70;;;;;;3540878;40;20121;-65
2021/08/01 11:46:24;;;;;;;2.40;2.03;;;24.70;51.60;;;;;;3541183;40;20452;-65
2021/08/01 11:49:01;;;;;;;1.70;1.60;;;24.70;52.30;;;;;;3540664;40;20027;-65
2021/08/01 11:51:29;;;;;;;2.28;1.98;;;24.60;52.60;;;;;;3541041;40;20049;-65
2021/08/01 11:53:56;;;;;;;2.30;1.50;;;24.70;53.60;;;;;;3540729;40;20035;-64
2021/08/01 11:56:23;;;;;;;2.40;1.38;;;24.70;51.50;;;;;;3541371;40;20760;-82
2021/08/01 11:58:54;;;;;;;1.35;1.25;;;24.80;51.10;;;;;;3538142;40;20056;-65
2021/08/01 12:01:20;;;;;;;7.95;1.63;;;24.70;51.20;;;;;;3538465;40;20054;-64
2021/08/01 12:03:49;;;;;;;4.40;1.70;;;24.70;52.00;;;;;;3540587;40;20328;-65
2021/08/01 12:06:34;;;;;;;1.42;1.27;;;24.80;51.60;;;;;;3546739;40;20667;-65
2021/08/01 12:09:13;;;;;;;5.72;1.45;;;24.90;51.20;;;;;;3540582;40;20498;-65
2021/08/01 12:11:39;;;;;;;1.98;1.42;;;25.00;51.70;;;;;;3546713;40;20041;-65
2021/08/01 12:14:07;;;;;;;1.58;1.27;;;25.00;50.20;;;;;;3539425;40;20030;-65
2021/08/01 12:16:33;;;;;;;1.33;1.23;;;25.00;50.70;;;;;;3547554;40;20123;-66
2021/08/01 12:19:16;;;;;;;1.63;1.30;;;25.00;50.30;;;;;;3540361;40;20124;-63
2021/08/01 12:21:43;;;;;;;1.55;1.20;;;25.10;51.00;;;;;;3540551;40;20530;-64
2021/08/01 12:24:46;;;;;;;1.73;1.23;;;25.10;50.30;;;;;;3540248;40;20034;-67
2021/08/01 12:27:16;;;;;;;1.25;1.15;;;25.10;51.40;;;;;;3539771;40;20128;-67
2021/08/01 12:29:45;;;;;;;1.30;1.20;;;25.20;50.70;;;;;;3539510;40;20498;-68
2021/08/01 12:32:31;;;;;;;4.40;1.30;;;25.20;50.10;;;;;;3539582;40;20320;-66
2021/08/01 12:35:03;;;;;;;2.67;1.40;;;25.10;49.90;;;;;;3540299;40;20185;-66
2021/08/01 12:37:30;;;;;;;2.03;1.15;;;25.00;50.40;;;;;;3537865;40;20035;-67
2021/08/01 12:39:56;;;;;;;3.45;1.38;;;24.80;51.40;;;;;;3540830;40;20038;-66
2021/08/01 12:42:25;;;;;;;1.20;1.10;;;24.60;52.30;;;;;;3540183;40;20689;-66
2021/08/01 12:45:03;;;;;;;1.52;1.40;;;24.40;53.40;;;;;;3541265;40;20038;-66
2021/08/01 12:47:30;;;;;;;2.00;1.30;;;24.40;52.10;;;;;;3541083;40;20034;-66
2021/08/01 12:50:02;;;;;;;1.83;1.50;;;24.30;51.90;;;;;;3540598;40;20034;-67
2021/08/01 12:52:28;;;;;;;1.67;1.40;;;24.20;52.70;;;;;;3541269;40;20034;-66
2021/08/01 12:54:55;;;;;;;2.97;1.40;;;24.20;53.30;;;;;;3540959;40;20037;-67
2021/08/01 12:57:22;;;;;;;1.90;1.50;;;24.30;52.40;;;;;;3541580;40;20300;-66